Time;durP1;ratioP1;P1;durP2;ratioP2;P2;SDS_P1;SDS_P2;PMS_P1;PMS_P2;Temp;Humidity;BMP_temperature;BMP_pressure;BME280_temperature;BME280_humidity;BME280_pressure;Samples;Min_cycle;Max_cycle;Signal;HPM_P1;HPM_P2
2023/12/01 00:01:27;;;;;;;2.70;2.50;;;;;1.30;94201.00;;;;5094991;28;20222;-56
2023/12/01 00:03:56;;;;;;;3.63;2.63;;;;;1.30;94202.00;;;;5095373;28;20569;-56
2023/12/01 00:06:23;;;;;;;4.03;3.67;;;;;1.30;94203.00;;;;5095426;28;20224;-56
2023/12/01 00:08:51;;;;;;;2.13;2.03;;;;;1.30;94208.00;;;;5095717;28;20437;-56
2023/12/01 00:11:18;;;;;;;1.63;1.53;;;;;1.30;94203.00;;;;5095434;28;20190;-56
2023/12/01 00:13:45;;;;;;;1.73;1.63;;;;;1.30;94203.00;;;;5095382;28;20197;-56
2023/12/01 00:16:13;;;;;;;3.23;3.03;;;;;1.30;94202.00;;;;5095144;28;20194;-56
2023/12/01 00:18:40;;;;;;;1.97;1.87;;;;;1.60;94209.00;;;;5095890;28;20198;-56
2023/12/01 00:21:10;;;;;;;2.57;2.30;;;;;1.40;94205.00;;;;5095498;28;20190;-56
2023/12/01 00:23:37;;;;;;;2.27;2.07;;;;;1.20;94203.00;;;;5095341;28;20199;-56
2023/12/01 00:26:05;;;;;;;3.17;2.90;;;;;1.20;94207.00;;;;5095857;28;20245;-57
2023/12/01 00:28:32;;;;;;;2.43;2.23;;;;;1.40;94223.00;;;;5095081;28;20197;-57
2023/12/01 00:31:00;;;;;;;2.27;2.13;;;;;1.40;94223.00;;;;5094649;28;20202;-58
2023/12/01 00:33:27;;;;;;;2.57;1.60;;;;;1.30;94214.00;;;;5094626;28;20271;-56
2023/12/01 00:35:55;;;;;;;2.30;1.60;;;;;1.20;94206.00;;;;5094531;28;20645;-56
2023/12/01 00:38:23;;;;;;;1.50;1.47;;;;;1.20;94218.00;;;;5094429;28;20202;-56
2023/12/01 00:40:51;;;;;;;2.93;1.93;;;;;1.20;94220.00;;;;5094204;28;20190;-56
2023/12/01 00:43:18;;;;;;;1.77;1.67;;;;;1.20;94214.00;;;;5094204;28;20707;-57
2023/12/01 00:45:46;;;;;;;4.50;2.97;;;;;1.20;94215.00;;;;5093970;28;20218;-56
2023/12/01 00:48:13;;;;;;;2.80;2.60;;;;;1.20;94222.00;;;;5094033;28;20193;-57
2023/12/01 00:50:41;;;;;;;2.60;2.10;;;;;1.20;94224.00;;;;5094191;28;20196;-56
2023/12/01 00:53:09;;;;;;;2.27;2.17;;;;;1.20;94220.00;;;;5093983;28;20210;-56
2023/12/01 00:55:37;;;;;;;1.70;1.60;;;;;1.20;94214.00;;;;5094077;28;20190;-57
2023/12/01 00:58:05;;;;;;;2.67;2.47;;;;;1.30;94216.00;;;;5094270;28;20197;-56
2023/12/01 01:00:32;;;;;;;3.40;3.10;;;;;1.30;94225.00;;;;5093792;28;20202;-56
2023/12/01 01:03:00;;;;;;;2.77;2.40;;;;;1.30;94210.00;;;;5093926;28;20225;-56
2023/12/01 01:05:27;;;;;;;1.93;1.83;;;;;1.20;94206.00;;;;5093614;28;20661;-57
2023/12/01 01:07:55;;;;;;;2.80;2.60;;;;;1.30;94217.00;;;;5093790;28;20631;-56
2023/12/01 01:10:22;;;;;;;3.37;3.07;;;;;1.20;94205.00;;;;5093885;28;20206;-56
2023/12/01 01:12:52;;;;;;;3.17;2.97;;;;;1.20;94205.00;;;;5094088;28;20214;-57
2023/12/01 01:15:19;;;;;;;4.87;3.23;;;;;1.30;94201.00;;;;5094056;28;20194;-56
2023/12/01 01:17:46;;;;;;;2.60;2.50;;;;;1.20;94204.00;;;;5094156;28;20661;-56
2023/12/01 01:20:14;;;;;;;2.17;2.03;;;;;1.30;94211.00;;;;5094085;28;20194;-56
2023/12/01 01:22:41;;;;;;;2.30;2.20;;;;;1.30;94212.00;;;;5093741;28;20218;-56
2023/12/01 01:25:09;;;;;;;2.37;2.07;;;;;1.30;94195.00;;;;5093692;28;20194;-57
2023/12/01 01:27:37;;;;;;;2.77;2.50;;;;;1.30;94214.00;;;;5093886;28;20221;-57
2023/12/01 01:30:06;;;;;;;2.10;1.93;;;;;1.40;94220.00;;;;5093918;28;20199;-56
2023/12/01 01:32:34;;;;;;;3.37;3.10;;;;;1.50;94235.00;;;;5094040;28;20206;-56
2023/12/01 01:35:02;;;;;;;4.40;3.20;;;;;1.40;94244.00;;;;5093763;28;20201;-56
2023/12/01 01:37:29;;;;;;;3.70;3.33;;;;;1.10;94258.00;;;;5093939;28;20192;-56
2023/12/01 01:39:59;;;;;;;1.60;1.50;;;;;1.20;94229.00;;;;5094160;28;20208;-56
2023/12/01 01:42:27;;;;;;;4.07;3.20;;;;;1.20;94236.00;;;;5093924;28;20335;-56
2023/12/01 01:44:54;;;;;;;2.77;2.57;;;;;1.10;94246.00;;;;5093754;28;20192;-56
2023/12/01 01:47:23;;;;;;;2.30;2.10;;;;;1.10;94251.00;;;;5096486;28;20235;-56
2023/12/01 01:49:51;;;;;;;2.17;1.97;;;;;1.00;94243.00;;;;5098057;28;20257;-56
2023/12/01 01:52:19;;;;;;;1.53;1.43;;;;;0.90;94241.00;;;;5096791;28;20224;-57
2023/12/01 01:54:49;;;;;;;2.60;2.40;;;;;0.80;94257.00;;;;5096212;28;20186;-56
2023/12/01 01:57:17;;;;;;;2.40;2.17;;;;;0.70;94263.00;;;;5097729;28;20190;-56
2023/12/01 01:59:45;;;;;;;2.60;2.40;;;;;0.80;94262.00;;;;5097344;28;20205;-56
2023/12/01 02:02:12;;;;;;;2.87;1.83;;;;;0.80;94253.00;;;;5097427;28;20209;-56
2023/12/01 02:04:41;;;;;;;2.33;2.13;;;;;0.90;94238.00;;;;5097720;28;20591;-56
2023/12/01 02:07:24;;;;;;;1.23;1.23;;;;;0.90;94258.00;;;;5097584;28;20572;-56
2023/12/01 02:09:52;;;;;;;2.23;2.03;;;;;0.90;94251.00;;;;5097014;28;20178;-56
2023/12/01 02:12:19;;;;;;;1.77;1.67;;;;;0.80;94255.00;;;;5097141;28;20221;-56
2023/12/01 02:14:47;;;;;;;7.97;2.90;;;;;0.90;94256.00;;;;5097201;28;20185;-56
2023/12/01 02:17:14;;;;;;;1.97;1.87;;;;;0.90;94253.00;;;;5097342;28;20201;-56
2023/12/01 02:19:43;;;;;;;1.47;1.40;;;;;0.90;94259.00;;;;5096818;28;20195;-57
2023/12/01 02:22:12;;;;;;;1.67;1.57;;;;;0.90;94259.00;;;;5095957;28;20211;-56
2023/12/01 02:24:39;;;;;;;2.60;2.20;;;;;0.90;94259.00;;;;5097216;28;20198;-56
2023/12/01 02:27:06;;;;;;;1.90;1.80;;;;;1.00;94251.00;;;;5096994;28;20692;-56
2023/12/01 02:29:34;;;;;;;1.80;1.70;;;;;1.00;94250.00;;;;5097270;28;20214;-58
2023/12/01 02:32:01;;;;;;;3.30;2.00;;;;;0.90;94256.00;;;;5096638;28;20275;-58
2023/12/01 02:34:29;;;;;;;1.97;1.83;;;;;0.90;94247.00;;;;5097247;28;20192;-58
2023/12/01 02:36:58;;;;;;;1.50;1.40;;;;;0.80;94238.00;;;;5097174;28;20189;-57
2023/12/01 02:39:27;;;;;;;2.50;2.27;;;;;0.70;94252.00;;;;5097487;28;20193;-57
2023/12/01 02:41:54;;;;;;;5.60;2.07;;;;;0.60;94256.00;;;;5097143;28;20264;-57
2023/12/01 02:44:22;;;;;;;1.37;1.33;;;;;0.60;94255.00;;;;5096839;28;20201;-58
2023/12/01 02:46:49;;;;;;;2.87;2.67;;;;;0.60;94257.00;;;;5096691;28;20309;-56
2023/12/01 02:49:17;;;;;;;2.20;2.00;;;;;0.60;94268.00;;;;5096871;28;20255;-55
2023/12/01 02:51:44;;;;;;;2.00;1.80;;;;;0.80;94274.00;;;;5096978;28;20226;-57
2023/12/01 02:54:11;;;;;;;2.30;2.20;;;;;0.80;94265.00;;;;5096189;28;20197;-57
2023/12/01 02:56:40;;;;;;;3.00;2.73;;;;;0.80;94251.00;;;;5095889;28;20645;-58
2023/12/01 02:59:07;;;;;;;1.87;1.77;;;;;0.80;94237.00;;;;5096130;28;20593;-56
2023/12/01 03:01:35;;;;;;;1.57;1.57;;;;;0.90;94245.00;;;;5096736;28;20221;-56
2023/12/01 03:04:02;;;;;;;1.43;1.40;;;;;0.90;94243.00;;;;5096790;28;20201;-56
2023/12/01 03:06:30;;;;;;;1.70;1.60;;;;;0.80;94244.00;;;;5096429;28;20337;-57
2023/12/01 03:08:57;;;;;;;1.67;1.60;;;;;0.80;94246.00;;;;5094925;28;20652;-57
2023/12/01 03:11:26;;;;;;;1.97;1.87;;;;;0.90;94254.00;;;;5096048;28;20209;-57
2023/12/01 03:13:54;;;;;;;1.90;1.80;;;;;0.80;94258.00;;;;5095822;28;20665;-57
2023/12/01 03:16:22;;;;;;;1.50;1.40;;;;;0.80;94265.00;;;;5095659;28;20201;-56
2023/12/01 03:18:49;;;;;;;1.20;1.20;;;;;0.80;94260.00;;;;5095848;28;20194;-56
2023/12/01 03:21:17;;;;;;;2.40;2.20;;;;;0.80;94255.00;;;;5095709;28;20190;-56
2023/12/01 03:23:44;;;;;;;1.80;1.70;;;;;0.80;94253.00;;;;5095657;28;20701;-57
2023/12/01 03:26:16;;;;;;;3.03;2.83;;;;;0.90;94241.00;;;;5095457;28;20274;-57
2023/12/01 03:28:44;;;;;;;2.77;2.57;;;;;1.00;94234.00;;;;5094208;28;20539;-56
2023/12/01 03:31:15;;;;;;;3.63;2.33;;;;;0.80;94249.00;;;;5095870;28;20201;-57
2023/12/01 03:33:42;;;;;;;2.20;2.00;;;;;0.90;94249.00;;;;5095927;28;20190;-57
2023/12/01 03:36:10;;;;;;;2.33;2.23;;;;;0.80;94255.00;;;;5094183;28;20198;-57
2023/12/01 03:38:38;;;;;;;3.13;2.03;;;;;0.80;94246.00;;;;5095601;28;20591;-57
2023/12/01 03:41:06;;;;;;;3.60;1.83;;;;;0.80;94251.00;;;;5095704;28;20198;-57
2023/12/01 03:43:33;;;;;;;2.53;2.30;;;;;0.80;94260.00;;;;5095711;28;20214;-57
2023/12/01 03:46:03;;;;;;;1.80;1.70;;;;;0.80;94262.00;;;;5095295;28;20232;-57
2023/12/01 03:48:33;;;;;;;3.63;2.10;;;;;0.80;94254.00;;;;5095322;28;20270;-57
2023/12/01 03:51:00;;;;;;;2.43;2.23;;;;;0.90;94251.00;;;;5095329;28;20281;-57
2023/12/01 03:53:30;;;;;;;12.80;3.13;;;;;0.90;94253.00;;;;5095010;28;20716;-57
2023/12/01 03:55:58;;;;;;;2.57;2.37;;;;;0.90;94252.00;;;;5095001;28;20668;-57
2023/12/01 03:58:26;;;;;;;1.87;1.77;;;;;0.80;94257.00;;;;5094974;28;20189;-56
2023/12/01 04:00:53;;;;;;;7.27;3.30;;;;;0.80;94254.00;;;;5094797;28;20198;-57
2023/12/01 04:03:23;;;;;;;1.50;1.50;;;;;0.80;94253.00;;;;5094950;28;20213;-57
2023/12/01 04:05:52;;;;;;;1.47;1.47;;;;;0.80;94254.00;;;;5094687;28;20202;-57
2023/12/01 04:08:20;;;;;;;2.20;2.00;;;;;0.90;94241.00;;;;5094209;28;20252;-58
2023/12/01 04:10:47;;;;;;;2.43;2.23;;;;;0.90;94263.00;;;;5094466;28;20198;-57
2023/12/01 04:13:15;;;;;;;3.37;2.70;;;;;0.90;94258.00;;;;5094578;28;20214;-57
2023/12/01 04:15:43;;;;;;;5.43;3.07;;;;;0.90;94245.00;;;;5094645;28;20614;-57
2023/12/01 04:18:10;;;;;;;1.80;1.67;;;;;0.80;94254.00;;;;5094373;28;20201;-57
2023/12/01 04:20:38;;;;;;;4.40;3.70;;;;;0.70;94254.00;;;;5094903;28;20202;-57
2023/12/01 04:23:10;;;;;;;1.33;1.30;;;;;0.90;94256.00;;;;5094312;28;20303;-59
2023/12/01 04:25:38;;;;;;;2.53;2.33;;;;;0.90;94264.00;;;;5094799;28;20210;-57
2023/12/01 04:28:06;;;;;;;1.77;1.67;;;;;0.90;94252.00;;;;5094369;28;20222;-56
2023/12/01 04:30:37;;;;;;;2.87;2.53;;;;;0.90;94247.00;;;;5095069;28;20202;-56
2023/12/01 04:33:04;;;;;;;1.77;1.67;;;;;0.80;94253.00;;;;5094439;28;20210;-57
2023/12/01 04:35:34;;;;;;;1.87;1.77;;;;;0.70;94254.00;;;;5094605;28;20190;-57
2023/12/01 04:38:03;;;;;;;2.17;1.97;;;;;0.80;94265.00;;;;5094702;28;20662;-57
2023/12/01 04:40:33;;;;;;;1.63;1.53;;;;;0.90;94265.00;;;;5094089;28;20193;-58
2023/12/01 04:43:01;;;;;;;1.40;1.40;;;;;0.80;94263.00;;;;5093934;28;20701;-57
2023/12/01 04:45:32;;;;;;;2.03;1.93;;;;;0.90;94267.00;;;;5093958;28;20247;-57
2023/12/01 04:47:59;;;;;;;2.07;1.87;;;;;0.90;94254.00;;;;5094202;28;20226;-57
2023/12/01 04:50:28;;;;;;;2.60;2.40;;;;;0.90;94255.00;;;;5094123;28;20189;-57
2023/12/01 04:52:57;;;;;;;1.73;1.63;;;;;1.00;94251.00;;;;5094269;28;20217;-57
2023/12/01 04:55:26;;;;;;;2.37;2.20;;;;;0.90;94239.00;;;;5094108;28;20518;-57
2023/12/01 04:57:55;;;;;;;2.73;1.60;;;;;0.90;94232.00;;;;5093742;28;20185;-58
2023/12/01 05:00:25;;;;;;;2.40;2.03;;;;;0.80;94247.00;;;;5093673;28;20191;-57
2023/12/01 05:02:54;;;;;;;1.83;1.73;;;;;0.80;94258.00;;;;5093769;28;20288;-57
2023/12/01 05:05:23;;;;;;;2.30;2.10;;;;;0.90;94254.00;;;;5093773;28;20696;-56
2023/12/01 05:07:52;;;;;;;3.07;1.67;;;;;0.80;94265.00;;;;5093633;28;20233;-57
2023/12/01 05:10:20;;;;;;;1.70;1.60;;;;;0.80;94261.00;;;;5094024;28;20194;-57
2023/12/01 05:12:50;;;;;;;2.67;2.47;;;;;0.80;94257.00;;;;5093469;28;20212;-57
2023/12/01 05:15:20;;;;;;;4.00;2.63;;;;;0.80;94270.00;;;;5093526;28;20293;-56
2023/12/01 05:17:49;;;;;;;3.37;1.97;;;;;0.70;94273.00;;;;5093568;28;20197;-57
2023/12/01 05:20:17;;;;;;;1.70;1.60;;;;;0.90;94268.00;;;;5092669;28;20190;-57
2023/12/01 05:22:46;;;;;;;2.10;1.90;;;;;0.90;94267.00;;;;5093576;28;20705;-57
2023/12/01 05:25:17;;;;;;;2.07;1.97;;;;;1.00;94283.00;;;;5093431;28;20190;-57
2023/12/01 05:27:46;;;;;;;3.37;3.07;;;;;0.90;94262.00;;;;5093318;28;20205;-57
2023/12/01 05:30:14;;;;;;;1.93;1.83;;;;;0.90;94277.00;;;;5093590;28;20193;-57
2023/12/01 05:32:48;;;;;;;2.73;2.53;;;;;0.90;94280.00;;;;5093252;28;20205;-57
2023/12/01 05:35:16;;;;;;;2.93;2.47;;;;;0.90;94285.00;;;;5093629;28;20206;-57
2023/12/01 05:37:47;;;;;;;1.53;1.23;;;;;0.90;94294.00;;;;5093285;28;20194;-56
2023/12/01 05:40:16;;;;;;;1.63;1.53;;;;;0.90;94299.00;;;;5094273;28;20231;-57
2023/12/01 05:42:44;;;;;;;2.27;2.07;;;;;1.00;94299.00;;;;5091908;28;20274;-58
2023/12/01 05:45:13;;;;;;;1.13;1.13;;;;;0.90;94300.00;;;;5093510;28;20193;-58
2023/12/01 05:47:44;;;;;;;1.97;1.83;;;;;0.90;94291.00;;;;5093386;28;20221;-58
2023/12/01 05:50:17;;;;;;;1.93;1.83;;;;;0.90;94291.00;;;;5093326;28;20182;-58
2023/12/01 05:52:46;;;;;;;2.77;2.50;;;;;0.90;94294.00;;;;5093273;28;20618;-58
2023/12/01 05:55:17;;;;;;;2.33;2.13;;;;;0.90;94277.00;;;;5093308;28;20197;-57
2023/12/01 05:57:46;;;;;;;2.20;1.97;;;;;0.90;94267.00;;;;5093508;28;20178;-57
2023/12/01 06:00:18;;;;;;;56.73;27.60;;;;;1.00;94280.00;;;;5093056;28;20209;-56
2023/12/01 06:02:47;;;;;;;9.93;8.20;;;;;1.00;94277.00;;;;5093227;28;20214;-58
2023/12/01 06:05:17;;;;;;;3.20;3.00;;;;;1.00;94302.00;;;;5093195;28;20208;-56
2023/12/01 06:07:49;;;;;;;2.70;2.50;;;;;0.90;94295.00;;;;5093366;28;20561;-57
2023/12/01 06:10:18;;;;;;;3.13;2.93;;;;;0.90;94298.00;;;;5092950;28;20186;-59
2023/12/01 06:12:45;;;;;;;1.87;1.77;;;;;0.90;94305.00;;;;5092971;28;20225;-56
2023/12/01 06:15:15;;;;;;;1.60;1.50;;;;;1.00;94322.00;;;;5093132;28;20296;-56
2023/12/01 06:17:43;;;;;;;2.57;2.07;;;;;1.00;94319.00;;;;5092964;28;20203;-57
2023/12/01 06:20:17;;;;;;;1.80;1.70;;;;;1.10;94326.00;;;;5093059;28;20192;-57
2023/12/01 06:22:50;;;;;;;2.07;1.97;;;;;1.10;94327.00;;;;5093086;28;20214;-56
2023/12/01 06:25:19;;;;;;;2.03;1.93;;;;;1.10;94336.00;;;;5093077;28;20178;-56
2023/12/01 06:27:47;;;;;;;1.93;1.83;;;;;1.00;94328.00;;;;5092933;28;20324;-56
2023/12/01 06:30:16;;;;;;;2.57;2.37;;;;;0.90;94317.00;;;;5092910;28;20205;-56
2023/12/01 06:32:44;;;;;;;1.77;1.67;;;;;0.90;94312.00;;;;5095600;28;20760;-56
2023/12/01 06:35:14;;;;;;;1.60;1.50;;;;;1.00;94316.00;;;;5096536;28;20205;-56
2023/12/01 06:37:42;;;;;;;1.57;1.47;;;;;0.90;94328.00;;;;5096485;28;20217;-57
2023/12/01 06:40:15;;;;;;;2.27;2.17;;;;;1.00;94330.00;;;;5096823;28;20205;-56
2023/12/01 06:42:44;;;;;;;2.13;2.03;;;;;1.00;94337.00;;;;5096762;28;20307;-56
2023/12/01 06:45:13;;;;;;;1.63;1.53;;;;;1.00;94349.00;;;;5096711;28;20220;-56
2023/12/01 06:47:42;;;;;;;1.87;1.33;;;;;1.00;94351.00;;;;5096937;28;20225;-56
2023/12/01 06:50:14;;;;;;;1.67;1.53;;;;;1.00;94343.00;;;;5095220;28;20195;-56
2023/12/01 06:52:43;;;;;;;2.17;2.03;;;;;1.00;94353.00;;;;5096139;28;20208;-56
2023/12/01 06:55:12;;;;;;;2.10;2.00;;;;;1.00;94360.00;;;;5096076;28;20193;-56
2023/12/01 06:57:43;;;;;;;2.13;2.03;;;;;1.00;94364.00;;;;5096285;28;20186;-56
2023/12/01 07:00:34;;;;;;;2.13;2.03;;;;;1.00;94366.00;;;;5096238;28;20208;-58
2023/12/01 07:03:06;;;;;;;1.97;1.73;;;;;1.00;94342.00;;;;5095205;28;20723;-56
2023/12/01 07:05:35;;;;;;;1.50;1.40;;;;;1.00;94351.00;;;;5097027;28;20271;-56
2023/12/01 07:08:03;;;;;;;1.50;1.40;;;;;1.00;94356.00;;;;5097137;28;20224;-56
2023/12/01 07:10:33;;;;;;;1.63;1.53;;;;;1.00;94373.00;;;;5096786;28;20194;-57
2023/12/01 07:13:00;;;;;;;1.30;1.30;;;;;1.00;94368.00;;;;5096674;28;20213;-57
2023/12/01 07:15:29;;;;;;;1.23;1.23;;;;;0.90;94354.00;;;;5094801;28;20274;-57
2023/12/01 07:17:58;;;;;;;1.33;1.23;;;;;1.00;94350.00;;;;5095992;28;20190;-57
2023/12/01 07:20:25;;;;;;;1.90;1.77;;;;;0.90;94354.00;;;;5095721;28;20202;-57
2023/12/01 07:22:54;;;;;;;3.47;1.47;;;;;1.00;94370.00;;;;5095849;28;20221;-57
2023/12/01 07:25:25;;;;;;;1.20;1.17;;;;;1.10;94362.00;;;;5095705;28;20299;-57
2023/12/01 07:27:58;;;;;;;4.47;2.00;;;;;1.10;94359.00;;;;5095596;28;20228;-57
2023/12/01 07:30:27;;;;;;;1.70;1.60;;;;;1.10;94370.00;;;;5096048;28;20181;-56
2023/12/01 07:32:55;;;;;;;1.10;1.10;;;;;1.10;94352.00;;;;5097013;28;20220;-56
2023/12/01 07:35:22;;;;;;;1.60;1.50;;;;;1.10;94350.00;;;;5095508;28;20196;-56
2023/12/01 07:37:52;;;;;;;1.03;1.03;;;;;1.10;94344.00;;;;5096119;28;20270;-56
2023/12/01 07:40:21;;;;;;;2.40;1.97;;;;;1.10;94348.00;;;;5095481;28;20194;-56
2023/12/01 07:42:49;;;;;;;2.83;1.73;;;;;1.10;94361.00;;;;5094663;28;20252;-56
2023/12/01 07:45:20;;;;;;;1.83;1.33;;;;;1.10;94365.00;;;;5095298;28;20197;-56
2023/12/01 07:47:51;;;;;;;1.87;1.77;;;;;1.10;94379.00;;;;5094989;28;20206;-56
2023/12/01 07:50:19;;;;;;;1.37;1.37;;;;;1.10;94381.00;;;;5095836;28;20521;-56
2023/12/01 07:52:48;;;;;;;2.53;2.33;;;;;1.00;94379.00;;;;5095169;28;20214;-57
2023/12/01 07:55:17;;;;;;;2.10;1.90;;;;;1.10;94387.00;;;;5093865;28;20669;-58
2023/12/01 07:57:44;;;;;;;1.83;1.73;;;;;1.10;94378.00;;;;5094799;28;20190;-56
2023/12/01 08:00:15;;;;;;;1.07;1.07;;;;;1.10;94391.00;;;;5094591;28;20202;-57
2023/12/01 08:02:44;;;;;;;1.93;1.83;;;;;1.10;94375.00;;;;5093791;28;20249;-58
2023/12/01 08:05:14;;;;;;;1.77;1.63;;;;;1.20;94384.00;;;;5094809;28;20190;-57
2023/12/01 08:07:42;;;;;;;2.03;1.73;;;;;1.10;94383.00;;;;5094390;28;20193;-57
2023/12/01 08:10:14;;;;;;;1.67;1.57;;;;;1.30;94387.00;;;;5094770;28;20293;-57
2023/12/01 08:12:42;;;;;;;1.50;1.40;;;;;1.30;94391.00;;;;5093413;28;20217;-57
2023/12/01 08:15:10;;;;;;;1.47;1.37;;;;;1.30;94394.00;;;;5094753;28;20209;-57
2023/12/01 08:17:38;;;;;;;1.07;1.07;;;;;1.30;94383.00;;;;5094548;28;20191;-56
2023/12/01 08:20:08;;;;;;;1.90;1.80;;;;;1.30;94390.00;;;;5094533;28;20193;-57
2023/12/01 08:22:37;;;;;;;2.17;1.97;;;;;1.30;94400.00;;;;5094838;28;20214;-56
2023/12/01 08:25:05;;;;;;;1.93;1.80;;;;;1.10;94395.00;;;;5094797;28;20196;-56
2023/12/01 08:27:33;;;;;;;0.90;0.90;;;;;1.10;94386.00;;;;5094302;28;20614;-56
2023/12/01 08:30:02;;;;;;;2.13;2.03;;;;;1.20;94382.00;;;;5094414;28;20197;-57
2023/12/01 08:32:29;;;;;;;1.20;1.20;;;;;1.20;94380.00;;;;5094959;28;20228;-56
2023/12/01 08:34:57;;;;;;;1.50;1.40;;;;;1.30;94388.00;;;;5095864;28;20205;-56
2023/12/01 08:37:28;;;;;;;1.90;1.80;;;;;1.30;94378.00;;;;5094998;28;20197;-56
2023/12/01 08:39:56;;;;;;;1.20;1.20;;;;;1.50;94373.00;;;;5094491;28;20718;-56
2023/12/01 08:42:24;;;;;;;1.10;1.10;;;;;1.40;94367.00;;;;5094307;28;20304;-56
2023/12/01 08:44:51;;;;;;;1.10;1.10;;;;;1.40;94366.00;;;;5094348;28;20198;-56
2023/12/01 08:47:21;;;;;;;4.17;1.47;;;;;1.50;94379.00;;;;5094143;28;20199;-57
2023/12/01 08:49:50;;;;;;;1.97;1.87;;;;;1.40;94393.00;;;;5094382;28;20238;-57
2023/12/01 08:52:18;;;;;;;1.53;1.47;;;;;1.40;94395.00;;;;5094254;28;20206;-57
2023/12/01 08:54:49;;;;;;;1.57;1.47;;;;;1.50;94391.00;;;;5094864;28;20190;-56
2023/12/01 08:57:17;;;;;;;1.40;1.37;;;;;1.60;94393.00;;;;5094604;28;20175;-57
2023/12/01 08:59:44;;;;;;;1.33;1.27;;;;;1.60;94387.00;;;;5093942;28;20205;-59
2023/12/01 09:02:12;;;;;;;2.27;1.93;;;;;1.70;94384.00;;;;5093849;28;20578;-58
2023/12/01 09:04:39;;;;;;;1.07;1.07;;;;;1.70;94372.00;;;;5093741;28;20281;-59
2023/12/01 09:07:07;;;;;;;1.90;1.80;;;;;1.70;94367.00;;;;5093467;28;20198;-57
2023/12/01 09:09:35;;;;;;;2.43;2.23;;;;;1.90;94367.00;;;;5093409;28;20638;-57
2023/12/01 09:12:04;;;;;;;1.50;1.40;;;;;1.80;94387.00;;;;5093294;28;20216;-59
2023/12/01 09:14:31;;;;;;;1.30;1.30;;;;;2.00;94387.00;;;;5093903;28;20194;-57
2023/12/01 09:16:59;;;;;;;1.27;1.27;;;;;2.20;94399.00;;;;5093451;28;20198;-58
2023/12/01 09:19:26;;;;;;;2.67;2.00;;;;;2.20;94386.00;;;;5093859;28;20195;-57
2023/12/01 09:21:54;;;;;;;2.13;1.97;;;;;2.10;94390.00;;;;5093330;28;20218;-57
2023/12/01 09:24:21;;;;;;;1.50;1.40;;;;;2.10;94389.00;;;;5093433;28;20197;-57
2023/12/01 09:26:49;;;;;;;1.40;1.30;;;;;2.30;94400.00;;;;5093383;28;20198;-57
2023/12/01 09:29:18;;;;;;;2.27;2.07;;;;;2.30;94419.00;;;;5093302;28;20284;-57
2023/12/01 09:31:47;;;;;;;1.50;1.40;;;;;2.10;94404.00;;;;5093330;28;20210;-57
2023/12/01 09:34:15;;;;;;;1.47;1.43;;;;;2.10;94405.00;;;;5093546;28;20205;-57
2023/12/01 09:36:43;;;;;;;1.33;1.23;;;;;2.00;94398.00;;;;5093170;28;20599;-58
2023/12/01 09:39:11;;;;;;;0.90;0.90;;;;;2.10;94392.00;;;;5093207;28;20187;-57
2023/12/01 09:41:39;;;;;;;1.73;1.63;;;;;2.20;94390.00;;;;5093165;28;20787;-58
2023/12/01 09:44:07;;;;;;;1.93;1.73;;;;;2.10;94396.00;;;;5093503;28;20199;-58
2023/12/01 09:46:39;;;;;;;1.03;1.03;;;;;2.10;94400.00;;;;5093147;28;20229;-58
2023/12/01 09:49:07;;;;;;;1.63;1.53;;;;;2.10;94404.00;;;;5093739;28;20241;-57
2023/12/01 09:51:36;;;;;;;1.63;1.50;;;;;2.30;94413.00;;;;5093053;28;20707;-57
2023/12/01 09:54:04;;;;;;;1.23;1.23;;;;;2.30;94392.00;;;;5093421;28;20198;-57
2023/12/01 09:56:32;;;;;;;1.53;1.47;;;;;2.20;94384.00;;;;5091845;28;20194;-58
2023/12/01 09:59:00;;;;;;;1.60;1.47;;;;;2.50;94386.00;;;;5093179;28;20197;-58
2023/12/01 10:01:28;;;;;;;1.80;1.20;;;;;2.70;94380.00;;;;5092837;28;20218;-58
2023/12/01 10:03:57;;;;;;;1.80;1.70;;;;;2.70;94378.00;;;;5093041;28;20190;-57
2023/12/01 10:06:24;;;;;;;0.90;0.90;;;;;3.00;94377.00;;;;5093766;28;20197;-58
2023/12/01 10:08:52;;;;;;;1.67;1.57;;;;;3.10;94352.00;;;;5097434;28;20256;-57
2023/12/01 10:11:21;;;;;;;1.07;1.07;;;;;3.30;94395.00;;;;5096326;28;20197;-58
2023/12/01 10:13:51;;;;;;;4.13;2.73;;;;;3.40;94388.00;;;;5096829;28;20197;-58
2023/12/01 10:16:19;;;;;;;2.50;2.30;;;;;3.20;94394.00;;;;5097010;28;20186;-57
2023/12/01 10:18:59;;;;;;;1.87;1.77;;;;;3.00;94385.00;;;;5096703;28;20195;-58
2023/12/01 10:21:43;;;;;;;3.00;2.47;;;;;3.00;94392.00;;;;5096660;28;20690;-58
2023/12/01 10:24:20;;;;;;;1.73;1.63;;;;;2.90;94379.00;;;;5096714;28;20198;-57
2023/12/01 10:26:49;;;;;;;1.80;1.63;;;;;2.80;94378.00;;;;5096598;28;20183;-59
2023/12/01 10:29:28;;;;;;;2.23;2.10;;;;;2.80;94366.00;;;;5096478;28;20321;-57
2023/12/01 10:31:57;;;;;;;1.53;1.43;;;;;2.70;94360.00;;;;5096553;28;20218;-57
2023/12/01 10:34:26;;;;;;;1.30;1.30;;;;;2.80;94364.00;;;;5096424;28;20195;-57
2023/12/01 10:36:54;;;;;;;1.63;1.53;;;;;2.90;94359.00;;;;5096463;28;20689;-57
2023/12/01 10:39:27;;;;;;;1.70;1.60;;;;;3.00;94368.00;;;;5096533;28;20193;-57
2023/12/01 10:41:55;;;;;;;2.13;2.00;;;;;2.90;94372.00;;;;5096331;28;20215;-57
2023/12/01 10:44:24;;;;;;;1.63;1.53;;;;;2.80;94365.00;;;;5096446;28;20194;-57
2023/12/01 10:46:53;;;;;;;1.83;1.73;;;;;2.80;94370.00;;;;5096259;28;20198;-57
2023/12/01 10:49:22;;;;;;;5.20;2.13;;;;;2.80;94368.00;;;;5096194;28;20301;-57
2023/12/01 10:51:52;;;;;;;2.30;2.20;;;;;2.70;94361.00;;;;5095991;28;20213;-57
2023/12/01 10:54:23;;;;;;;1.83;1.73;;;;;2.70;94365.00;;;;5096418;28;20681;-57
2023/12/01 10:57:02;;;;;;;1.40;1.40;;;;;2.60;94361.00;;;;5096402;28;20191;-57
2023/12/01 10:59:35;;;;;;;1.73;1.63;;;;;2.60;94345.00;;;;5096264;28;20179;-57
2023/12/01 11:02:03;;;;;;;1.27;1.27;;;;;2.70;94356.00;;;;5096661;28;20303;-56
2023/12/01 11:04:33;;;;;;;4.40;4.10;;;;;2.70;94361.00;;;;5096222;28;20277;-57
2023/12/01 11:07:15;;;;;;;9.60;6.10;;;;;2.70;94346.00;;;;5096175;28;20191;-57
2023/12/01 11:09:56;;;;;;;4.93;3.27;;;;;2.80;94350.00;;;;5096244;28;20301;-57
2023/12/01 11:12:34;;;;;;;2.07;1.97;;;;;2.80;94327.00;;;;5094243;28;20704;-57
2023/12/01 11:15:17;;;;;;;2.17;2.07;;;;;2.70;94329.00;;;;5095930;28;20178;-57
2023/12/01 11:17:45;;;;;;;1.83;1.73;;;;;2.70;94353.00;;;;5095098;28;20183;-57
2023/12/01 11:20:34;;;;;;;2.37;2.20;;;;;2.70;94334.00;;;;5095544;28;20677;-57
2023/12/01 11:23:32;;;;;;;2.70;2.50;;;;;2.70;94338.00;;;;5095383;28;20707;-61
2023/12/01 11:26:07;;;;;;;4.27;3.93;;;;;2.70;94337.00;;;;5095554;28;20280;-56
2023/12/01 11:28:42;;;;;;;3.03;2.77;;;;;2.60;94344.00;;;;5094972;28;20568;-56
2023/12/01 11:31:13;;;;;;;3.00;2.80;;;;;2.50;94361.00;;;;5095402;28;20610;-56
2023/12/01 11:33:44;;;;;;;2.83;2.63;;;;;2.40;94355.00;;;;5095527;28;20183;-56
2023/12/01 11:36:23;;;;;;;2.67;2.27;;;;;2.40;94344.00;;;;5095454;28;20198;-56
2023/12/01 11:39:27;;;;;;;2.20;2.03;;;;;2.40;94330.00;;;;5096162;28;20255;-56
2023/12/01 11:42:16;;;;;;;3.87;2.83;;;;;2.30;94332.00;;;;5096264;28;20237;-56
2023/12/01 11:44:44;;;;;;;1.73;1.63;;;;;2.30;94335.00;;;;5095814;28;20212;-56
2023/12/01 11:47:15;;;;;;;3.03;2.83;;;;;2.30;94341.00;;;;5095394;28;20187;-56
2023/12/01 11:49:45;;;;;;;2.63;2.30;;;;;2.30;94343.00;;;;5095276;28;20221;-56
2023/12/01 11:52:14;;;;;;;3.47;2.70;;;;;2.20;94345.00;;;;5094716;28;20626;-56
2023/12/01 11:54:43;;;;;;;2.90;2.23;;;;;2.30;94355.00;;;;5094823;28;20239;-57
2023/12/01 11:57:14;;;;;;;3.63;3.20;;;;;2.20;94360.00;;;;5094569;28;20217;-57
2023/12/01 11:59:41;;;;;;;2.57;2.37;;;;;2.30;94349.00;;;;5094631;28;20672;-56
2023/12/01 12:02:09;;;;;;;3.40;3.10;;;;;2.20;94357.00;;;;5094792;28;20219;-56
2023/12/01 12:04:39;;;;;;;7.80;7.03;;;;;2.30;94360.00;;;;5094459;28;20202;-57
2023/12/01 12:07:08;;;;;;;6.90;6.03;;;;;2.20;94364.00;;;;5094799;28;20182;-56
2023/12/01 12:09:36;;;;;;;3.77;2.87;;;;;2.10;94363.00;;;;5093414;28;20219;-57
2023/12/01 12:12:09;;;;;;;3.27;2.83;;;;;2.20;94366.00;;;;5094604;28;20326;-57
2023/12/01 12:14:38;;;;;;;2.40;2.07;;;;;2.30;94370.00;;;;5094805;28;20507;-56
2023/12/01 12:17:05;;;;;;;2.40;2.20;;;;;2.20;94360.00;;;;5094411;28;20191;-59
2023/12/01 12:19:42;;;;;;;3.17;2.40;;;;;2.10;94364.00;;;;5094864;28;20638;-56
2023/12/01 12:22:09;;;;;;;11.73;3.10;;;;;2.10;94381.00;;;;5094766;28;20266;-56
2023/12/01 12:24:37;;;;;;;2.73;2.47;;;;;2.20;94397.00;;;;5094185;28;20559;-57
2023/12/01 12:27:06;;;;;;;2.70;2.50;;;;;2.10;94417.00;;;;5095118;28;20278;-57
2023/12/01 12:29:34;;;;;;;2.00;1.90;;;;;2.10;94412.00;;;;5094220;28;20286;-58
2023/12/01 12:32:02;;;;;;;2.77;2.33;;;;;2.00;94405.00;;;;5093022;28;20227;-57
2023/12/01 12:34:30;;;;;;;3.77;3.40;;;;;2.00;94381.00;;;;5092946;28;20201;-57
2023/12/01 12:36:57;;;;;;;2.43;2.23;;;;;2.00;94388.00;;;;5093809;28;20190;-58